Welcome to Flightinfo.com

  • Register now and join the discussion
  • Friendliest aviation Ccmmunity on the web
  • Modern site for PC's, Phones, Tablets - no 3rd party apps required
  • Ask questions, help others, promote aviation
  • Share the passion for aviation
  • Invite everyone to Flightinfo.com and let's have fun

Anyone want to go to LCH?

Welcome to Flightinfo.com

  • Register now and join the discussion
  • Modern secure site, no 3rd party apps required
  • Invite your friends
  • Share the passion of aviation
  • Friendliest aviation community on the web

Melon

Big Member
Joined
May 18, 2005
Posts
77

KLCH 232004Z 232018 05022G30KT P6SM SCT015CB BKN025 TEMPO 2022 06030G40KT 2SM +RA OVC015CB FM2200 07040G55KT 1SM +RA BKN010 OVC020 FM0200 09055G70KT 1/2SM TSRA BKN002CB OVC010 FM0600 12065G80KT 1/4SM TSRA OVC001CB FM1000 15075G95KT 1/4SM TSRA OVC001CB HOLY FUKCING $HIT WE ARE ALL GONNA DIE FM1500 21050G65KT 1SM TSRA BKN005CB OVC008
 
Beaumont is even better. Dispatch says we are good to go as long as we have a wind alternate of IAH.



KBPT 231724Z 231818 05020G30KT P6SM SCT030CB BKN070 OVC250 TEMPO 1822 06030G40KT 2SM TSRA BKN020CB FM2300 07040G55KT 1SM TSRA BKN012CB OVC020 FM0300 09055G70KT 1/2SM TSRA BKN002CB OVC010 FM0700 12070G90KT 1/4SM TSRA OVC001CB FM1000 15090G110KT 1/4SM TSRA OVC001CB FM1500 23060G75KT 1/2SM TSRA BKN005CB OVC008
 
added? i thought that was real!!

(how funny would that be?:))
 
once, at Jax. he said to keep my speed up for the incoming jet, so i did!!! never seen 3 blown tires before....
 
Anyone have a link to that hilarious ATIS "broadcast" with the "dead cows and pieces of mobile homes on all runways" I almost peed my pants the first time I heard it.
 

Latest posts

Latest resources

Back
Top